• Join FlightAware (Why Join?)
  • Login
  • US Flag 
06:07PM EDT


 

Airport Tracker/Info


-or-


 

Live Flight TrackerFlight Track Log ✈ UAL698 ✈ 10-Jul-2013 ✈ KSFO - KLAX

Flight Track Log - Related Links

Times and Time Zones

All times are in EDT time to prevent confusion due to time zone crossing. See the UAL698 flight status page for this flight to view local times or setup timezone preferences in your user account.

Time Position Orientation Groundspeed Altitude Reporting Facility
EDT Latitude Longitude Course Direction KTS MPH feet Rate Location/Type
07:52PM 37.7167 -122.4167 310° West 238 274 4,600  Level Northern Cal TRACON
07:53PM 37.4349 -122.3712 113° Southeast  Level FlightAware Approximate
07:53PM 37.6833 -122.4833 238° Southwest 277 319 7,600  Level Northern Cal TRACON
07:54PM 37.3849 -122.2691 130° Southeast  Level FlightAware Approximate
07:54PM 37.6000 -122.4833 180° South 281 323 10,900  Level Northern Cal TRACON
07:54PM 37.5511 -122.4656 164° South 291 335 12,400 2,580 Climbing Oakland Center
07:55PM 37.3154 -122.1851 136° Southeast  Level FlightAware Approximate
07:55PM 37.4814 -122.3867 138° Southeast 343 395 15,200  Level Oakland Center
07:56PM 37.2494 -122.0987 122° Southeast  Level FlightAware Approximate
07:56PM 37.4183 -122.2953 131° Southeast 347 399 18,100  Level Oakland Center
07:58PM 37.3492 -122.2031 133° Southeast 362 417 20,500 2,160 Climbing Oakland Center
07:59PM 37.2783 -122.1083 133° Southeast 374 430 22,600 2,040 Climbing Oakland Center
08:00PM 37.2072 -122.0119 133° Southeast 377 434 24,700 1,800 Climbing Oakland Center
08:01PM 37.1331 -121.9106 133° Southeast 393 452 26,300 1,680 Climbing Oakland Center
08:02PM 37.0392 -121.7858 133° Southeast 411 473 28,200 1,800 Climbing Oakland Center
08:03PM 36.9606 -121.6833 134° Southeast 409 471 30,000 1,620 Climbing Oakland Center
08:04PM 36.8828 -121.5775 133° Southeast 413 475 31,500 1,320 Climbing Oakland Center
08:05PM 36.8117 -121.4803 132° Southeast 414 476 32,800 1,440 Climbing Oakland Center
08:06PM 36.7336 -121.3744 133° Southeast 413 475 34,500 1,020 Climbing Oakland Center
08:07PM 36.6381 -121.2525 134° Southeast 411 473 34,900 180 Climbing Oakland Center
08:08PM 36.5586 -121.1469 133° Southeast 415 478 34,900  Level Oakland Center
08:09PM 36.4789 -121.0433 134° Southeast 414 476 34,900  Level Oakland Center
08:10PM 36.3992 -120.9397 134° Southeast 413 475 34,900  Level Oakland Center
08:11PM 36.3211 -120.8389 134° Southeast 406 467 34,900  Level Oakland Center
08:12PM 36.2419 -120.7350 133° Southeast 411 473 34,900  Level Oakland Center
08:13PM 36.1619 -120.6339 134° Southeast 410 472 34,900  Level Oakland Center
08:14PM 36.0808 -120.5289 134° Southeast 419 482 35,000  Climbing Oakland Center
08:15PM 35.9997 -120.4233 134° Southeast 421 484 35,000 -60 Level Oakland Center
08:16PM 35.9181 -120.3189 134° Southeast 421 484 34,900 -60 Descending Oakland Center
08:17PM 35.8200 -120.1958 134° Southeast 417 480 34,900  Level Oakland Center
08:18PM 35.7383 -120.0908 134° Southeast 419 482 34,900  Level Oakland Center
08:19PM 35.6567 -119.9892 135° Southeast 416 479 34,900  Level Oakland Center
08:20PM 35.6211 -119.9542 141° Southeast 414 476 34,900  Level Los Angeles Center
08:21PM 35.5058 -119.8550 145° Southeast 417 480 34,900  Level Los Angeles Center
08:22PM 35.4111 -119.7719 144° Southeast 415 478 34,900  Level Los Angeles Center
08:23PM 35.3150 -119.6903 145° Southeast 418 481 34,900 -300 Level Los Angeles Center
08:24PM 35.2192 -119.6092 145° Southeast 418 481 34,300 -840 Descending Los Angeles Center
08:25PM 35.1231 -119.5269 145° Southeast 419 482 33,200 -1,020 Descending Los Angeles Center
08:26PM 35.0286 -119.4447 145° Southeast 417 480 32,200 -1,920 Descending Los Angeles Center
08:27PM 34.9122 -119.3489 146° Southeast 420 483 29,300 -2,400 Descending Los Angeles Center
08:28PM 34.8189 -119.2694 145° Southeast 413 475 27,200 -2,040 Descending Los Angeles Center
08:29PM 34.7297 -119.1931 145° Southeast 398 458 25,100 -1,860 Descending Los Angeles Center
08:30PM 34.6594 -119.1353 146° Southeast 388 447 23,400 -2,040 Descending Los Angeles Center
08:31PM 34.5528 -119.0469 146° Southeast 366 421 20,900 -2,160 Descending Los Angeles Center
08:32PM 34.4728 -118.9794 145° Southeast 350 403 19,000 -1,920 Descending Los Angeles Center
08:33PM 34.3939 -118.9139 146° Southeast 340 391 17,000 -2,160 Descending Los Angeles Center
08:34PM 34.2914 -118.8575 156° South 336 387 14,600 -2,280 Descending Los Angeles Center
08:35PM 34.2014 -118.8247 163° South 336 387 12,400 -1,680 Descending Los Angeles Center
08:36PM 34.1142 -118.7919 163° South 328 377 11,200 -1,200 Descending Los Angeles Center
08:37PM 34.0386 -118.7436 152° Southeast 309 356 10,000 -660 Descending Los Angeles Center
08:38PM 34.0275 -118.6361 97° East 301 346 9,900 -780 Descending Los Angeles Center
08:39PM 34.0178 -118.5381 97° East 295 339 8,400 -1,320 Descending Los Angeles Center
08:40PM 34.0106 -118.4578 96° East 287 330 7,200 -1,200 Descending Los Angeles Center
08:41PM 34.0264 -118.3550 79° East 257 296 6,000 -1,020 Descending Los Angeles Center
08:42PM 34.0386 -118.2700 80° East 248 285 5,200 -780 Descending Los Angeles Center